sensor_id;sensor_type;location;lat;lon;timestamp;P1;durP1;ratioP1;P2;durP2;ratioP2
57828;SDS011;43657;52.698;6.314;2023-04-24T00:01:51;10.45;;;9.50;;
57828;SDS011;43657;52.698;6.314;2023-04-24T00:04:17;10.30;;;9.48;;
57828;SDS011;43657;52.698;6.314;2023-04-24T00:06:43;12.73;;;11.70;;
57828;SDS011;43657;52.698;6.314;2023-04-24T00:09:09;9.40;;;8.70;;
57828;SDS011;43657;52.698;6.314;2023-04-24T00:11:35;10.60;;;9.70;;
57828;SDS011;43657;52.698;6.314;2023-04-24T00:14:01;11.57;;;10.60;;
57828;SDS011;43657;52.698;6.314;2023-04-24T00:16:27;12.40;;;11.30;;
57828;SDS011;43657;52.698;6.314;2023-04-24T00:18:53;12.73;;;11.38;;
57828;SDS011;43657;52.698;6.314;2023-04-24T00:21:18;9.68;;;8.98;;
57828;SDS011;43657;52.698;6.314;2023-04-24T00:23:44;10.02;;;9.23;;
57828;SDS011;43657;52.698;6.314;2023-04-24T00:26:10;9.80;;;9.05;;
57828;SDS011;43657;52.698;6.314;2023-04-24T00:28:35;11.75;;;10.68;;
57828;SDS011;43657;52.698;6.314;2023-04-24T00:31:01;11.60;;;10.57;;
57828;SDS011;43657;52.698;6.314;2023-04-24T00:33:27;13.10;;;11.95;;
57828;SDS011;43657;52.698;6.314;2023-04-24T00:35:52;13.68;;;12.52;;
57828;SDS011;43657;52.698;6.314;2023-04-24T00:38:18;13.65;;;12.45;;
57828;SDS011;43657;52.698;6.314;2023-04-24T00:40:43;13.88;;;12.68;;
57828;SDS011;43657;52.698;6.314;2023-04-24T00:43:09;15.27;;;13.98;;
57828;SDS011;43657;52.698;6.314;2023-04-24T00:45:36;14.05;;;12.85;;
57828;SDS011;43657;52.698;6.314;2023-04-24T00:48:01;15.30;;;13.98;;
57828;SDS011;43657;52.698;6.314;2023-04-24T00:50:28;14.95;;;13.75;;
57828;SDS011;43657;52.698;6.314;2023-04-24T00:52:54;14.27;;;13.05;;
57828;SDS011;43657;52.698;6.314;2023-04-24T00:55:20;15.10;;;13.90;;
57828;SDS011;43657;52.698;6.314;2023-04-24T00:57:46;16.83;;;15.07;;
57828;SDS011;43657;52.698;6.314;2023-04-24T01:00:12;17.23;;;15.82;;
57828;SDS011;43657;52.698;6.314;2023-04-24T01:02:39;14.00;;;12.90;;
57828;SDS011;43657;52.698;6.314;2023-04-24T01:05:09;15.13;;;13.82;;
57828;SDS011;43657;52.698;6.314;2023-04-24T01:07:34;13.18;;;12.07;;
57828;SDS011;43657;52.698;6.314;2023-04-24T01:10:01;13.07;;;11.98;;
57828;SDS011;43657;52.698;6.314;2023-04-24T01:12:27;14.48;;;13.25;;
57828;SDS011;43657;52.698;6.314;2023-04-24T01:14:52;14.82;;;13.50;;
57828;SDS011;43657;52.698;6.314;2023-04-24T01:17:19;14.65;;;13.55;;
57828;SDS011;43657;52.698;6.314;2023-04-24T01:19:46;13.85;;;12.95;;
57828;SDS011;43657;52.698;6.314;2023-04-24T01:22:14;16.45;;;15.43;;
57828;SDS011;43657;52.698;6.314;2023-04-24T01:24:41;12.05;;;11.27;;
57828;SDS011;43657;52.698;6.314;2023-04-24T01:27:07;12.57;;;11.77;;
57828;SDS011;43657;52.698;6.314;2023-04-24T01:29:34;12.45;;;11.63;;
57828;SDS011;43657;52.698;6.314;2023-04-24T01:32:00;14.82;;;13.90;;
57828;SDS011;43657;52.698;6.314;2023-04-24T01:34:27;15.10;;;14.15;;
57828;SDS011;43657;52.698;6.314;2023-04-24T01:36:52;16.98;;;15.90;;
57828;SDS011;43657;52.698;6.314;2023-04-24T01:39:18;14.15;;;13.25;;
57828;SDS011;43657;52.698;6.314;2023-04-24T01:41:45;17.05;;;15.95;;
57828;SDS011;43657;52.698;6.314;2023-04-24T01:44:11;16.25;;;15.23;;
57828;SDS011;43657;52.698;6.314;2023-04-24T01:46:37;18.45;;;17.20;;
57828;SDS011;43657;52.698;6.314;2023-04-24T01:49:03;14.30;;;13.38;;
57828;SDS011;43657;52.698;6.314;2023-04-24T01:51:28;14.40;;;13.50;;
57828;SDS011;43657;52.698;6.314;2023-04-24T01:53:55;16.88;;;15.68;;
57828;SDS011;43657;52.698;6.314;2023-04-24T01:56:21;13.80;;;12.90;;
57828;SDS011;43657;52.698;6.314;2023-04-24T01:58:47;11.35;;;10.52;;
57828;SDS011;43657;52.698;6.314;2023-04-24T02:01:18;10.75;;;9.95;;
57828;SDS011;43657;52.698;6.314;2023-04-24T02:03:45;10.65;;;9.95;;
57828;SDS011;43657;52.698;6.314;2023-04-24T02:06:10;10.77;;;9.95;;
57828;SDS011;43657;52.698;6.314;2023-04-24T02:08:36;10.50;;;9.80;;
57828;SDS011;43657;52.698;6.314;2023-04-24T02:11:01;8.45;;;7.85;;
57828;SDS011;43657;52.698;6.314;2023-04-24T02:13:27;9.45;;;8.77;;
57828;SDS011;43657;52.698;6.314;2023-04-24T02:15:53;9.40;;;8.80;;
57828;SDS011;43657;52.698;6.314;2023-04-24T02:18:19;8.30;;;7.72;;
57828;SDS011;43657;52.698;6.314;2023-04-24T02:20:44;7.28;;;6.68;;
57828;SDS011;43657;52.698;6.314;2023-04-24T02:23:10;7.18;;;6.57;;
57828;SDS011;43657;52.698;6.314;2023-04-24T02:25:36;6.38;;;5.88;;
57828;SDS011;43657;52.698;6.314;2023-04-24T02:28:02;6.13;;;5.70;;
57828;SDS011;43657;52.698;6.314;2023-04-24T02:30:27;7.68;;;7.07;;
57828;SDS011;43657;52.698;6.314;2023-04-24T02:32:53;5.47;;;5.07;;
57828;SDS011;43657;52.698;6.314;2023-04-24T02:35:19;7.50;;;6.90;;
57828;SDS011;43657;52.698;6.314;2023-04-24T02:37:44;6.88;;;6.18;;
57828;SDS011;43657;52.698;6.314;2023-04-24T02:40:10;7.32;;;6.72;;
57828;SDS011;43657;52.698;6.314;2023-04-24T02:42:36;7.57;;;7.07;;
57828;SDS011;43657;52.698;6.314;2023-04-24T02:45:01;7.47;;;6.88;;
57828;SDS011;43657;52.698;6.314;2023-04-24T02:47:27;7.68;;;7.07;;
57828;SDS011;43657;52.698;6.314;2023-04-24T02:49:53;8.02;;;7.43;;
57828;SDS011;43657;52.698;6.314;2023-04-24T02:52:18;10.35;;;9.55;;
57828;SDS011;43657;52.698;6.314;2023-04-24T02:54:44;10.63;;;9.85;;
57828;SDS011;43657;52.698;6.314;2023-04-24T02:57:09;11.25;;;10.35;;
57828;SDS011;43657;52.698;6.314;2023-04-24T02:59:35;11.65;;;10.85;;
57828;SDS011;43657;52.698;6.314;2023-04-24T03:02:00;9.52;;;8.73;;
57828;SDS011;43657;52.698;6.314;2023-04-24T03:04:26;9.13;;;8.43;;
57828;SDS011;43657;52.698;6.314;2023-04-24T03:06:52;10.82;;;10.00;;
57828;SDS011;43657;52.698;6.314;2023-04-24T03:09:19;9.75;;;9.00;;
57828;SDS011;43657;52.698;6.314;2023-04-24T03:11:45;8.13;;;7.53;;
57828;SDS011;43657;52.698;6.314;2023-04-24T03:14:11;9.35;;;8.65;;
57828;SDS011;43657;52.698;6.314;2023-04-24T03:16:36;8.07;;;7.50;;
57828;SDS011;43657;52.698;6.314;2023-04-24T03:19:02;8.07;;;7.40;;
57828;SDS011;43657;52.698;6.314;2023-04-24T03:21:27;6.60;;;6.10;;
57828;SDS011;43657;52.698;6.314;2023-04-24T03:23:53;5.55;;;5.15;;
57828;SDS011;43657;52.698;6.314;2023-04-24T03:26:19;5.53;;;5.03;;
57828;SDS011;43657;52.698;6.314;2023-04-24T03:28:44;4.50;;;4.20;;
57828;SDS011;43657;52.698;6.314;2023-04-24T03:31:10;4.18;;;3.78;;
57828;SDS011;43657;52.698;6.314;2023-04-24T03:33:35;3.45;;;3.15;;
57828;SDS011;43657;52.698;6.314;2023-04-24T03:36:01;4.28;;;3.88;;
57828;SDS011;43657;52.698;6.314;2023-04-24T03:38:27;3.83;;;2.80;;
57828;SDS011;43657;52.698;6.314;2023-04-24T03:40:53;2.85;;;2.60;;
57828;SDS011;43657;52.698;6.314;2023-04-24T03:43:18;2.30;;;2.10;;
57828;SDS011;43657;52.698;6.314;2023-04-24T03:45:44;1.90;;;1.80;;
57828;SDS011;43657;52.698;6.314;2023-04-24T03:48:09;1.25;;;1.17;;
57828;SDS011;43657;52.698;6.314;2023-04-24T03:50:35;1.65;;;1.25;;
57828;SDS011;43657;52.698;6.314;2023-04-24T03:53:00;1.30;;;1.10;;
57828;SDS011;43657;52.698;6.314;2023-04-24T03:55:26;1.13;;;1.13;;
57828;SDS011;43657;52.698;6.314;2023-04-24T03:57:51;3.42;;;1.20;;
57828;SDS011;43657;52.698;6.314;2023-04-24T04:00:20;2.50;;;2.10;;
57828;SDS011;43657;52.698;6.314;2023-04-24T04:02:46;2.58;;;2.30;;
57828;SDS011;43657;52.698;6.314;2023-04-24T04:05:11;3.40;;;3.10;;
57828;SDS011;43657;52.698;6.314;2023-04-24T04:07:37;4.70;;;4.30;;
57828;SDS011;43657;52.698;6.314;2023-04-24T04:10:03;4.93;;;4.50;;
57828;SDS011;43657;52.698;6.314;2023-04-24T04:12:28;6.55;;;5.88;;
57828;SDS011;43657;52.698;6.314;2023-04-24T04:14:55;7.97;;;7.38;;
57828;SDS011;43657;52.698;6.314;2023-04-24T04:17:20;7.40;;;6.80;;
57828;SDS011;43657;52.698;6.314;2023-04-24T04:19:46;9.40;;;8.60;;
57828;SDS011;43657;52.698;6.314;2023-04-24T04:22:11;7.63;;;7.03;;
57828;SDS011;43657;52.698;6.314;2023-04-24T04:24:37;9.15;;;8.35;;
57828;SDS011;43657;52.698;6.314;2023-04-24T04:27:03;8.90;;;8.10;;
57828;SDS011;43657;52.698;6.314;2023-04-24T04:29:30;8.52;;;7.78;;
57828;SDS011;43657;52.698;6.314;2023-04-24T04:31:56;9.10;;;8.20;;
57828;SDS011;43657;52.698;6.314;2023-04-24T04:34:22;7.93;;;7.22;;
57828;SDS011;43657;52.698;6.314;2023-04-24T04:36:48;6.68;;;6.13;;
57828;SDS011;43657;52.698;6.314;2023-04-24T04:39:14;7.53;;;6.70;;
57828;SDS011;43657;52.698;6.314;2023-04-24T04:41:40;7.10;;;6.40;;
57828;SDS011;43657;52.698;6.314;2023-04-24T04:44:06;7.43;;;6.72;;
57828;SDS011;43657;52.698;6.314;2023-04-24T04:46:33;6.97;;;6.30;;
57828;SDS011;43657;52.698;6.314;2023-04-24T04:48:59;7.32;;;6.63;;
57828;SDS011;43657;52.698;6.314;2023-04-24T04:51:26;7.72;;;6.35;;
57828;SDS011;43657;52.698;6.314;2023-04-24T04:53:52;9.70;;;7.07;;
57828;SDS011;43657;52.698;6.314;2023-04-24T04:56:17;10.93;;;7.50;;
57828;SDS011;43657;52.698;6.314;2023-04-24T04:58:43;16.33;;;10.93;;
57828;SDS011;43657;52.698;6.314;2023-04-24T05:01:09;23.23;;;13.70;;
57828;SDS011;43657;52.698;6.314;2023-04-24T05:03:34;27.90;;;16.17;;
57828;SDS011;43657;52.698;6.314;2023-04-24T05:06:00;28.45;;;16.95;;
57828;SDS011;43657;52.698;6.314;2023-04-24T05:08:27;39.33;;;20.55;;
57828;SDS011;43657;52.698;6.314;2023-04-24T05:10:52;38.72;;;21.95;;
57828;SDS011;43657;52.698;6.314;2023-04-24T05:13:18;41.10;;;22.83;;
57828;SDS011;43657;52.698;6.314;2023-04-24T05:15:44;33.22;;;20.38;;
57828;SDS011;43657;52.698;6.314;2023-04-24T05:18:10;39.35;;;23.10;;
57828;SDS011;43657;52.698;6.314;2023-04-24T05:20:35;49.17;;;24.58;;
57828;SDS011;43657;52.698;6.314;2023-04-24T05:23:01;38.10;;;23.25;;
57828;SDS011;43657;52.698;6.314;2023-04-24T05:25:26;41.38;;;22.10;;
57828;SDS011;43657;52.698;6.314;2023-04-24T05:27:52;39.25;;;20.88;;
57828;SDS011;43657;52.698;6.314;2023-04-24T05:30:18;32.35;;;19.77;;
57828;SDS011;43657;52.698;6.314;2023-04-24T05:32:44;37.55;;;21.90;;
57828;SDS011;43657;52.698;6.314;2023-04-24T05:35:11;48.05;;;24.50;;
57828;SDS011;43657;52.698;6.314;2023-04-24T05:37:36;47.35;;;23.85;;
57828;SDS011;43657;52.698;6.314;2023-04-24T05:40:02;48.60;;;24.60;;
57828;SDS011;43657;52.698;6.314;2023-04-24T05:42:30;46.45;;;24.67;;
57828;SDS011;43657;52.698;6.314;2023-04-24T05:44:56;54.72;;;26.23;;
57828;SDS011;43657;52.698;6.314;2023-04-24T05:47:21;44.00;;;24.88;;
57828;SDS011;43657;52.698;6.314;2023-04-24T05:49:47;46.83;;;25.60;;
57828;SDS011;43657;52.698;6.314;2023-04-24T05:52:13;55.08;;;25.70;;
57828;SDS011;43657;52.698;6.314;2023-04-24T05:54:38;49.85;;;25.48;;
57828;SDS011;43657;52.698;6.314;2023-04-24T05:57:04;56.47;;;27.48;;
57828;SDS011;43657;52.698;6.314;2023-04-24T05:59:33;71.97;;;28.63;;
57828;SDS011;43657;52.698;6.314;2023-04-24T06:01:59;50.80;;;25.90;;
57828;SDS011;43657;52.698;6.314;2023-04-24T06:04:25;48.92;;;25.15;;
57828;SDS011;43657;52.698;6.314;2023-04-24T06:06:50;69.57;;;28.65;;
57828;SDS011;43657;52.698;6.314;2023-04-24T06:09:20;56.05;;;25.25;;
57828;SDS011;43657;52.698;6.314;2023-04-24T06:11:50;47.00;;;23.95;;
57828;SDS011;43657;52.698;6.314;2023-04-24T06:14:18;46.75;;;22.38;;
57828;SDS011;43657;52.698;6.314;2023-04-24T06:16:43;34.67;;;18.80;;
57828;SDS011;43657;52.698;6.314;2023-04-24T06:19:09;30.77;;;17.70;;
57828;SDS011;43657;52.698;6.314;2023-04-24T06:21:35;35.35;;;17.00;;
57828;SDS011;43657;52.698;6.314;2023-04-24T06:24:00;33.30;;;16.65;;
57828;SDS011;43657;52.698;6.314;2023-04-24T06:26:26;30.02;;;16.70;;
57828;SDS011;43657;52.698;6.314;2023-04-24T06:28:52;31.13;;;16.63;;
57828;SDS011;43657;52.698;6.314;2023-04-24T06:31:21;53.67;;;20.10;;
57828;SDS011;43657;52.698;6.314;2023-04-24T06:33:47;33.53;;;17.73;;
57828;SDS011;43657;52.698;6.314;2023-04-24T06:36:13;17.52;;;12.00;;
57828;SDS011;43657;52.698;6.314;2023-04-24T06:38:38;21.83;;;13.35;;
57828;SDS011;43657;52.698;6.314;2023-04-24T06:41:04;21.80;;;14.40;;
57828;SDS011;43657;52.698;6.314;2023-04-24T06:43:30;19.33;;;13.10;;
57828;SDS011;43657;52.698;6.314;2023-04-24T06:45:57;26.65;;;15.65;;
57828;SDS011;43657;52.698;6.314;2023-04-24T06:48:23;34.35;;;17.42;;
57828;SDS011;43657;52.698;6.314;2023-04-24T06:50:50;30.15;;;17.77;;
57828;SDS011;43657;52.698;6.314;2023-04-24T06:53:16;36.60;;;19.40;;
57828;SDS011;43657;52.698;6.314;2023-04-24T06:55:41;33.80;;;19.48;;
57828;SDS011;43657;52.698;6.314;2023-04-24T06:58:09;30.52;;;18.92;;
57828;SDS011;43657;52.698;6.314;2023-04-24T07:00:35;20.88;;;16.05;;
57828;SDS011;43657;52.698;6.314;2023-04-24T07:03:01;22.05;;;16.35;;
57828;SDS011;43657;52.698;6.314;2023-04-24T07:05:27;25.48;;;17.90;;
57828;SDS011;43657;52.698;6.314;2023-04-24T07:07:53;33.63;;;21.08;;
57828;SDS011;43657;52.698;6.314;2023-04-24T07:10:18;23.60;;;17.70;;
57828;SDS011;43657;52.698;6.314;2023-04-24T07:12:45;33.92;;;20.73;;
57828;SDS011;43657;52.698;6.314;2023-04-24T07:15:11;36.83;;;21.58;;
57828;SDS011;43657;52.698;6.314;2023-04-24T07:17:37;24.95;;;17.98;;
57828;SDS011;43657;52.698;6.314;2023-04-24T07:20:03;35.60;;;21.27;;
57828;SDS011;43657;52.698;6.314;2023-04-24T07:22:30;26.45;;;19.23;;
57828;SDS011;43657;52.698;6.314;2023-04-24T07:24:56;34.15;;;21.75;;
57828;SDS011;43657;52.698;6.314;2023-04-24T07:27:21;40.00;;;22.77;;
57828;SDS011;43657;52.698;6.314;2023-04-24T07:29:47;29.55;;;19.65;;
57828;SDS011;43657;52.698;6.314;2023-04-24T07:32:13;32.90;;;21.60;;
57828;SDS011;43657;52.698;6.314;2023-04-24T07:34:38;34.00;;;20.45;;
57828;SDS011;43657;52.698;6.314;2023-04-24T07:37:04;43.67;;;23.92;;
57828;SDS011;43657;52.698;6.314;2023-04-24T07:39:29;27.92;;;19.40;;
57828;SDS011;43657;52.698;6.314;2023-04-24T07:41:55;19.73;;;14.60;;
57828;SDS011;43657;52.698;6.314;2023-04-24T07:44:21;27.48;;;18.25;;
57828;SDS011;43657;52.698;6.314;2023-04-24T07:46:46;37.55;;;20.30;;
57828;SDS011;43657;52.698;6.314;2023-04-24T07:49:12;19.20;;;13.00;;
57828;SDS011;43657;52.698;6.314;2023-04-24T07:51:37;16.95;;;12.98;;
57828;SDS011;43657;52.698;6.314;2023-04-24T07:54:04;12.02;;;10.57;;
57828;SDS011;43657;52.698;6.314;2023-04-24T07:56:32;15.25;;;10.90;;
57828;SDS011;43657;52.698;6.314;2023-04-24T07:58:58;14.65;;;11.10;;
57828;SDS011;43657;52.698;6.314;2023-04-24T08:01:26;26.10;;;17.48;;
57828;SDS011;43657;52.698;6.314;2023-04-24T08:03:51;31.67;;;21.15;;
57828;SDS011;43657;52.698;6.314;2023-04-24T08:06:17;33.35;;;22.80;;
57828;SDS011;43657;52.698;6.314;2023-04-24T08:08:43;30.50;;;23.48;;
57828;SDS011;43657;52.698;6.314;2023-04-24T08:11:08;35.50;;;25.95;;
57828;SDS011;43657;52.698;6.314;2023-04-24T08:13:34;43.63;;;29.08;;
57828;SDS011;43657;52.698;6.314;2023-04-24T08:16:00;45.58;;;31.40;;
57828;SDS011;43657;52.698;6.314;2023-04-24T08:18:25;57.88;;;34.35;;
57828;SDS011;43657;52.698;6.314;2023-04-24T08:20:51;48.90;;;32.75;;
57828;SDS011;43657;52.698;6.314;2023-04-24T08:23:17;46.42;;;34.03;;
57828;SDS011;43657;52.698;6.314;2023-04-24T08:25:42;94.88;;;44.45;;
57828;SDS011;43657;52.698;6.314;2023-04-24T08:28:08;54.30;;;35.58;;
57828;SDS011;43657;52.698;6.314;2023-04-24T08:30:35;39.17;;;31.80;;
57828;SDS011;43657;52.698;6.314;2023-04-24T08:33:01;48.40;;;34.72;;
57828;SDS011;43657;52.698;6.314;2023-04-24T08:35:27;52.08;;;36.22;;
57828;SDS011;43657;52.698;6.314;2023-04-24T08:37:53;62.35;;;42.10;;
57828;SDS011;43657;52.698;6.314;2023-04-24T08:40:18;51.78;;;38.60;;
57828;SDS011;43657;52.698;6.314;2023-04-24T08:42:51;54.35;;;40.15;;
57828;SDS011;43657;52.698;6.314;2023-04-24T08:45:21;55.38;;;40.22;;
57828;SDS011;43657;52.698;6.314;2023-04-24T08:47:47;37.42;;;33.28;;
57828;SDS011;43657;52.698;6.314;2023-04-24T08:50:14;35.08;;;31.23;;
57828;SDS011;43657;52.698;6.314;2023-04-24T08:52:40;56.42;;;40.00;;
57828;SDS011;43657;52.698;6.314;2023-04-24T08:55:07;41.17;;;33.78;;
57828;SDS011;43657;52.698;6.314;2023-04-24T08:57:34;41.92;;;34.88;;
57828;SDS011;43657;52.698;6.314;2023-04-24T09:00:00;40.95;;;34.67;;
57828;SDS011;43657;52.698;6.314;2023-04-24T09:02:26;42.35;;;35.30;;
57828;SDS011;43657;52.698;6.314;2023-04-24T09:04:53;44.95;;;35.63;;
57828;SDS011;43657;52.698;6.314;2023-04-24T09:07:22;56.85;;;43.28;;
57828;SDS011;43657;52.698;6.314;2023-04-24T09:09:51;42.90;;;35.75;;
57828;SDS011;43657;52.698;6.314;2023-04-24T09:12:16;49.92;;;37.40;;
57828;SDS011;43657;52.698;6.314;2023-04-24T09:14:42;38.65;;;33.63;;
57828;SDS011;43657;52.698;6.314;2023-04-24T09:17:10;35.95;;;30.17;;
57828;SDS011;43657;52.698;6.314;2023-04-24T09:19:36;41.08;;;34.22;;
57828;SDS011;43657;52.698;6.314;2023-04-24T09:22:05;34.85;;;31.17;;
57828;SDS011;43657;52.698;6.314;2023-04-24T09:24:32;38.88;;;31.75;;
57828;SDS011;43657;52.698;6.314;2023-04-24T09:26:58;32.28;;;28.73;;
57828;SDS011;43657;52.698;6.314;2023-04-24T09:29:26;33.67;;;28.15;;
57828;SDS011;43657;52.698;6.314;2023-04-24T09:31:52;36.00;;;26.30;;
57828;SDS011;43657;52.698;6.314;2023-04-24T09:34:21;29.08;;;23.75;;
57828;SDS011;43657;52.698;6.314;2023-04-24T09:36:48;26.23;;;21.70;;
57828;SDS011;43657;52.698;6.314;2023-04-24T09:39:15;22.90;;;19.33;;
57828;SDS011;43657;52.698;6.314;2023-04-24T09:41:45;20.45;;;17.23;;
57828;SDS011;43657;52.698;6.314;2023-04-24T09:44:21;21.90;;;18.30;;
57828;SDS011;43657;52.698;6.314;2023-04-24T09:46:51;29.77;;;22.55;;
57828;SDS011;43657;52.698;6.314;2023-04-24T09:49:23;16.40;;;13.18;;
57828;SDS011;43657;52.698;6.314;2023-04-24T09:51:50;20.65;;;15.25;;
57828;SDS011;43657;52.698;6.314;2023-04-24T09:54:16;16.30;;;14.35;;
57828;SDS011;43657;52.698;6.314;2023-04-24T09:56:49;23.35;;;15.70;;
57828;SDS011;43657;52.698;6.314;2023-04-24T09:59:16;18.40;;;14.27;;
57828;SDS011;43657;52.698;6.314;2023-04-24T10:01:43;17.75;;;14.27;;
57828;SDS011;43657;52.698;6.314;2023-04-24T10:06:45;18.98;;;7.97;;
57828;SDS011;43657;52.698;6.314;2023-04-24T10:09:13;13.10;;;7.50;;
57828;SDS011;43657;52.698;6.314;2023-04-24T10:11:43;12.20;;;6.55;;
57828;SDS011;43657;52.698;6.314;2023-04-24T10:14:14;14.60;;;8.05;;
57828;SDS011;43657;52.698;6.314;2023-04-24T10:16:42;15.15;;;7.43;;
57828;SDS011;43657;52.698;6.314;2023-04-24T10:19:08;14.13;;;7.50;;
57828;SDS011;43657;52.698;6.314;2023-04-24T10:21:34;16.05;;;7.70;;
57828;SDS011;43657;52.698;6.314;2023-04-24T10:24:00;12.80;;;6.53;;
57828;SDS011;43657;52.698;6.314;2023-04-24T10:26:28;12.68;;;7.03;;
57828;SDS011;43657;52.698;6.314;2023-04-24T10:28:54;14.55;;;8.07;;
57828;SDS011;43657;52.698;6.314;2023-04-24T10:31:22;16.08;;;7.85;;
57828;SDS011;43657;52.698;6.314;2023-04-24T10:33:48;12.85;;;7.82;;
57828;SDS011;43657;52.698;6.314;2023-04-24T10:36:16;13.10;;;6.30;;
57828;SDS011;43657;52.698;6.314;2023-04-24T10:38:42;17.25;;;7.93;;
57828;SDS011;43657;52.698;6.314;2023-04-24T10:41:11;17.58;;;7.63;;
57828;SDS011;43657;52.698;6.314;2023-04-24T10:44:04;16.23;;;7.22;;
57828;SDS011;43657;52.698;6.314;2023-04-24T10:46:38;16.88;;;8.18;;
57828;SDS011;43657;52.698;6.314;2023-04-24T10:49:05;13.55;;;6.60;;
57828;SDS011;43657;52.698;6.314;2023-04-24T10:59:48;11.82;;;5.50;;
57828;SDS011;43657;52.698;6.314;2023-04-24T11:02:38;12.13;;;3.83;;
57828;SDS011;43657;52.698;6.314;2023-04-24T11:05:05;10.23;;;3.95;;
57828;SDS011;43657;52.698;6.314;2023-04-24T11:10:39;10.82;;;4.20;;
57828;SDS011;43657;52.698;6.314;2023-04-24T11:13:06;9.90;;;4.30;;
57828;SDS011;43657;52.698;6.314;2023-04-24T11:15:32;10.52;;;3.85;;
57828;SDS011;43657;52.698;6.314;2023-04-24T11:17:57;9.07;;;3.70;;
57828;SDS011;43657;52.698;6.314;2023-04-24T11:20:23;7.22;;;3.00;;
57828;SDS011;43657;52.698;6.314;2023-04-24T11:22:52;5.82;;;2.80;;
57828;SDS011;43657;52.698;6.314;2023-04-24T11:25:22;7.68;;;3.33;;
57828;SDS011;43657;52.698;6.314;2023-04-24T11:27:49;8.73;;;3.53;;
57828;SDS011;43657;52.698;6.314;2023-04-24T11:30:29;7.35;;;3.42;;
57828;SDS011;43657;52.698;6.314;2023-04-24T11:32:55;8.05;;;3.08;;
57828;SDS011;43657;52.698;6.314;2023-04-24T11:35:30;10.55;;;3.63;;
57828;SDS011;43657;52.698;6.314;2023-04-24T11:38:03;7.35;;;3.15;;
57828;SDS011;43657;52.698;6.314;2023-04-24T11:40:30;10.50;;;3.40;;
57828;SDS011;43657;52.698;6.314;2023-04-24T11:42:56;9.93;;;3.78;;
57828;SDS011;43657;52.698;6.314;2023-04-24T11:45:25;9.00;;;3.17;;
57828;SDS011;43657;52.698;6.314;2023-04-24T11:47:52;8.85;;;3.65;;
57828;SDS011;43657;52.698;6.314;2023-04-24T11:50:18;9.15;;;3.78;;
57828;SDS011;43657;52.698;6.314;2023-04-24T11:52:47;13.95;;;4.28;;
57828;SDS011;43657;52.698;6.314;2023-04-24T11:57:39;7.68;;;2.80;;
57828;SDS011;43657;52.698;6.314;2023-04-24T12:00:14;5.72;;;2.35;;
57828;SDS011;43657;52.698;6.314;2023-04-24T12:02:45;5.70;;;2.13;;
57828;SDS011;43657;52.698;6.314;2023-04-24T12:05:24;4.40;;;2.28;;
57828;SDS011;43657;52.698;6.314;2023-04-24T12:07:56;6.22;;;2.50;;
57828;SDS011;43657;52.698;6.314;2023-04-24T12:12:51;5.20;;;2.38;;
57828;SDS011;43657;52.698;6.314;2023-04-24T12:15:20;8.20;;;2.60;;
57828;SDS011;43657;52.698;6.314;2023-04-24T12:17:46;6.25;;;2.53;;
57828;SDS011;43657;52.698;6.314;2023-04-24T12:20:13;4.45;;;2.53;;
57828;SDS011;43657;52.698;6.314;2023-04-24T12:22:43;6.43;;;1.92;;
57828;SDS011;43657;52.698;6.314;2023-04-24T12:25:10;5.72;;;1.88;;
57828;SDS011;43657;52.698;6.314;2023-04-24T12:27:37;4.85;;;1.75;;
57828;SDS011;43657;52.698;6.314;2023-04-24T12:30:04;4.50;;;1.63;;
57828;SDS011;43657;52.698;6.314;2023-04-24T12:32:30;4.22;;;1.50;;
57828;SDS011;43657;52.698;6.314;2023-04-24T12:34:57;5.93;;;1.75;;
57828;SDS011;43657;52.698;6.314;2023-04-24T12:37:26;5.68;;;1.92;;
57828;SDS011;43657;52.698;6.314;2023-04-24T12:42:30;7.53;;;2.72;;
57828;SDS011;43657;52.698;6.314;2023-04-24T12:45:00;7.70;;;2.80;;
57828;SDS011;43657;52.698;6.314;2023-04-24T12:47:30;7.47;;;2.72;;
57828;SDS011;43657;52.698;6.314;2023-04-24T12:49:57;7.93;;;2.20;;
57828;SDS011;43657;52.698;6.314;2023-04-24T12:52:23;6.65;;;1.80;;
57828;SDS011;43657;52.698;6.314;2023-04-24T12:54:51;8.57;;;2.42;;
57828;SDS011;43657;52.698;6.314;2023-04-24T12:57:18;9.60;;;2.47;;
57828;SDS011;43657;52.698;6.314;2023-04-24T12:59:44;9.65;;;2.53;;
57828;SDS011;43657;52.698;6.314;2023-04-24T13:02:10;6.78;;;2.20;;
57828;SDS011;43657;52.698;6.314;2023-04-24T13:04:36;8.50;;;2.33;;
57828;SDS011;43657;52.698;6.314;2023-04-24T13:07:01;9.55;;;2.50;;
57828;SDS011;43657;52.698;6.314;2023-04-24T13:09:27;6.93;;;2.45;;
57828;SDS011;43657;52.698;6.314;2023-04-24T13:11:54;9.27;;;2.40;;
57828;SDS011;43657;52.698;6.314;2023-04-24T13:14:21;7.53;;;2.20;;
57828;SDS011;43657;52.698;6.314;2023-04-24T13:16:47;4.80;;;1.50;;
57828;SDS011;43657;52.698;6.314;2023-04-24T13:19:12;4.20;;;1.55;;
57828;SDS011;43657;52.698;6.314;2023-04-24T13:21:38;3.83;;;1.58;;
57828;SDS011;43657;52.698;6.314;2023-04-24T13:24:03;4.05;;;1.40;;
57828;SDS011;43657;52.698;6.314;2023-04-24T13:26:30;4.13;;;1.25;;
57828;SDS011;43657;52.698;6.314;2023-04-24T13:28:55;4.78;;;1.30;;
57828;SDS011;43657;52.698;6.314;2023-04-24T13:31:21;4.43;;;1.40;;
57828;SDS011;43657;52.698;6.314;2023-04-24T13:33:46;3.85;;;1.35;;
57828;SDS011;43657;52.698;6.314;2023-04-24T13:36:12;6.35;;;1.92;;
57828;SDS011;43657;52.698;6.314;2023-04-24T13:38:38;4.47;;;1.50;;
57828;SDS011;43657;52.698;6.314;2023-04-24T13:41:04;6.75;;;1.80;;
57828;SDS011;43657;52.698;6.314;2023-04-24T13:43:29;5.32;;;1.60;;
57828;SDS011;43657;52.698;6.314;2023-04-24T13:45:55;5.75;;;1.90;;
57828;SDS011;43657;52.698;6.314;2023-04-24T13:48:20;9.23;;;2.33;;
57828;SDS011;43657;52.698;6.314;2023-04-24T13:50:46;7.47;;;2.50;;
57828;SDS011;43657;52.698;6.314;2023-04-24T13:53:13;9.48;;;2.92;;
57828;SDS011;43657;52.698;6.314;2023-04-24T13:55:39;7.53;;;2.80;;
57828;SDS011;43657;52.698;6.314;2023-04-24T13:58:06;9.57;;;2.88;;
57828;SDS011;43657;52.698;6.314;2023-04-24T14:00:32;9.10;;;3.33;;
57828;SDS011;43657;52.698;6.314;2023-04-24T14:02:58;8.75;;;3.00;;
57828;SDS011;43657;52.698;6.314;2023-04-24T14:05:23;10.80;;;3.05;;
57828;SDS011;43657;52.698;6.314;2023-04-24T14:07:50;13.90;;;3.75;;
57828;SDS011;43657;52.698;6.314;2023-04-24T14:10:16;8.23;;;3.00;;
57828;SDS011;43657;52.698;6.314;2023-04-24T14:12:41;9.38;;;2.85;;
57828;SDS011;43657;52.698;6.314;2023-04-24T14:15:07;11.85;;;3.40;;
57828;SDS011;43657;52.698;6.314;2023-04-24T14:17:33;10.75;;;3.75;;
57828;SDS011;43657;52.698;6.314;2023-04-24T14:19:59;11.15;;;3.67;;
57828;SDS011;43657;52.698;6.314;2023-04-24T14:22:25;13.23;;;3.80;;
57828;SDS011;43657;52.698;6.314;2023-04-24T14:24:51;13.93;;;4.28;;
57828;SDS011;43657;52.698;6.314;2023-04-24T14:27:16;12.57;;;4.20;;
57828;SDS011;43657;52.698;6.314;2023-04-24T14:29:42;10.32;;;3.90;;
57828;SDS011;43657;52.698;6.314;2023-04-24T14:32:07;14.93;;;4.00;;
57828;SDS011;43657;52.698;6.314;2023-04-24T14:34:34;13.50;;;4.43;;
57828;SDS011;43657;52.698;6.314;2023-04-24T14:36:59;14.70;;;4.45;;
57828;SDS011;43657;52.698;6.314;2023-04-24T14:39:25;14.07;;;4.15;;
57828;SDS011;43657;52.698;6.314;2023-04-24T14:41:50;13.48;;;4.03;;
57828;SDS011;43657;52.698;6.314;2023-04-24T14:44:16;14.55;;;3.97;;
57828;SDS011;43657;52.698;6.314;2023-04-24T14:46:42;11.13;;;3.85;;
57828;SDS011;43657;52.698;6.314;2023-04-24T14:49:08;13.52;;;4.00;;
57828;SDS011;43657;52.698;6.314;2023-04-24T14:51:35;10.77;;;3.53;;